createdAt,value
2019-01-09T00:02:00.706Z,13.20
2019-01-09T00:04:43.388Z,11.60
2019-01-09T00:07:26.676Z,13.97
2019-01-09T00:10:10.776Z,12.23
2019-01-09T00:12:53.976Z,11.60
2019-01-09T00:15:39.714Z,11.40
2019-01-09T00:18:23.679Z,14.67
2019-01-09T00:21:07.285Z,15.73
2019-01-09T00:23:52.525Z,15.33
2019-01-09T00:26:36.079Z,14.83
2019-01-09T00:29:21.171Z,17.20
2019-01-09T00:32:03.943Z,18.73
2019-01-09T00:34:47.496Z,20.93
2019-01-09T00:37:31.723Z,24.83
2019-01-09T00:40:14.380Z,18.47
2019-01-09T00:42:48.503Z,14.53
2019-01-09T00:48:43.435Z,16.10
2019-01-09T00:51:25.750Z,15.27
2019-01-09T00:54:09.957Z,11.43
2019-01-09T00:56:53.614Z,12.93
2019-01-09T00:59:36.893Z,11.87
2019-01-09T01:02:22.364Z,16.60
2019-01-09T01:05:05.873Z,16.30
2019-01-09T01:07:48.843Z,11.43
2019-01-09T01:10:33.500Z,17.40
2019-01-09T01:15:58.039Z,19.00
2019-01-09T01:18:41.831Z,18.10
2019-01-09T01:21:25.008Z,14.13
2019-01-09T01:24:12.702Z,18.10
2019-01-09T01:26:59.047Z,19.00
2019-01-09T01:29:42.991Z,20.10
2019-01-09T01:32:25.410Z,15.37
2019-01-09T01:35:09.983Z,16.77
2019-01-09T01:37:55.094Z,14.93
2019-01-09T01:40:38.327Z,15.67
2019-01-09T01:43:21.345Z,17.30
2019-01-09T01:46:04.329Z,15.33
2019-01-09T01:48:46.542Z,16.57
2019-01-09T01:51:29.518Z,16.63
2019-01-09T01:57:03.340Z,19.90
2019-01-09T01:59:47.474Z,19.97
2019-01-09T02:02:33.129Z,20.20
2019-01-09T02:05:16.294Z,19.13
2019-01-09T02:08:00.251Z,16.90
2019-01-09T02:13:33.990Z,14.87
2019-01-09T02:16:18.798Z,18.97
2019-01-09T02:19:02.723Z,20.53
2019-01-09T02:21:46.021Z,22.77
2019-01-09T02:24:30.038Z,20.27
2019-01-09T02:27:14.063Z,17.43
2019-01-09T02:29:57.138Z,20.90
2019-01-09T02:32:40.656Z,25.52
2019-01-09T02:35:23.232Z,20.60
2019-01-09T02:38:06.264Z,19.40
2019-01-09T02:40:51.969Z,17.13
2019-01-09T02:43:34.453Z,14.67
2019-01-09T02:46:17.248Z,17.13
2019-01-09T02:49:02.748Z,13.63
2019-01-09T02:51:45.039Z,15.00
2019-01-09T02:54:28.550Z,17.37
2019-01-09T02:57:11.955Z,16.03
2019-01-09T02:59:55.125Z,15.93
2019-01-09T03:02:38.692Z,14.10
2019-01-09T03:05:21.908Z,17.03
2019-01-09T03:08:05.054Z,18.53
2019-01-09T03:10:48.567Z,11.97
2019-01-09T03:13:30.874Z,13.60
2019-01-09T03:16:13.833Z,11.03
2019-01-09T03:18:57.118Z,9.93
2019-01-09T03:21:40.525Z,13.50
2019-01-09T03:24:22.995Z,11.73
2019-01-09T03:27:06.015Z,16.97
2019-01-09T03:29:48.617Z,10.67
2019-01-09T03:32:33.903Z,8.83
2019-01-09T03:35:18.297Z,12.03
2019-01-09T03:38:01.686Z,9.83
2019-01-09T03:40:45.495Z,11.53
2019-01-09T03:43:29.079Z,9.03
2019-01-09T03:46:12.193Z,12.10
2019-01-09T03:48:55.705Z,10.37
2019-01-09T03:51:39.162Z,8.53
2019-01-09T03:54:22.448Z,8.03
2019-01-09T03:59:46.544Z,12.17
2019-01-09T04:02:31.285Z,10.27
2019-01-09T04:05:14.367Z,10.00
2019-01-09T04:07:58.103Z,7.80
2019-01-09T04:10:41.072Z,10.97
2019-01-09T04:13:24.954Z,9.27
2019-01-09T04:16:10.090Z,9.67
2019-01-09T04:18:54.204Z,8.77
2019-01-09T04:21:39.249Z,12.87
2019-01-09T04:24:22.215Z,10.27
2019-01-09T04:27:05.487Z,8.77
2019-01-09T04:29:47.804Z,11.73
2019-01-09T04:32:30.918Z,13.77
2019-01-09T04:35:14.358Z,9.93
2019-01-09T04:37:59.296Z,12.43
2019-01-09T04:40:42.890Z,12.70
2019-01-09T04:43:29.059Z,13.20
2019-01-09T04:46:12.295Z,13.90
2019-01-09T04:48:55.268Z,11.50
2019-01-09T04:51:39.099Z,14.17
2019-01-09T04:54:22.492Z,20.70
2019-01-09T04:57:07.145Z,17.57
2019-01-09T04:59:50.307Z,22.03
2019-01-09T05:02:33.863Z,19.63
2019-01-09T05:05:16.559Z,19.47
2019-01-09T05:08:00.157Z,21.42
2019-01-09T05:10:43.635Z,20.57
2019-01-09T05:13:26.590Z,19.20
2019-01-09T05:16:10.143Z,17.87
2019-01-09T05:18:53.235Z,21.10
2019-01-09T05:21:36.415Z,18.03
2019-01-09T05:24:19.102Z,24.20
2019-01-09T05:27:01.779Z,24.33
2019-01-09T05:29:44.513Z,22.57
2019-01-09T05:32:27.435Z,23.17
2019-01-09T05:35:10.147Z,19.70
2019-01-09T05:37:53.531Z,18.77
2019-01-09T05:40:36.522Z,23.87
2019-01-09T05:43:20.675Z,22.57
2019-01-09T05:46:03.962Z,24.50
2019-01-09T05:48:47.446Z,24.73
2019-01-09T05:51:30.306Z,25.23
2019-01-09T05:54:13.002Z,23.13
2019-01-09T05:56:55.643Z,23.03
2019-01-09T05:59:38.490Z,24.63
2019-01-09T06:02:21.366Z,24.60
2019-01-09T06:07:55.437Z,23.57
2019-01-09T06:10:38.071Z,22.57
2019-01-09T06:13:21.711Z,21.27
2019-01-09T06:16:05.103Z,17.33
2019-01-09T06:18:47.939Z,15.57
2019-01-09T06:21:31.167Z,16.87
2019-01-09T06:24:14.940Z,13.90
2019-01-09T06:26:58.106Z,15.43
2019-01-09T06:29:41.233Z,17.37
2019-01-09T06:32:24.088Z,15.53
2019-01-09T06:35:07.897Z,14.33
2019-01-09T06:37:51.350Z,17.50
2019-01-09T06:40:34.287Z,18.87
2019-01-09T06:43:16.879Z,17.37
2019-01-09T06:45:59.994Z,20.37
2019-01-09T06:48:43.049Z,23.13
2019-01-09T06:51:26.091Z,20.43
2019-01-09T06:54:09.136Z,18.80
2019-01-09T06:56:52.391Z,20.90
2019-01-09T06:59:35.896Z,22.57
2019-01-09T07:02:18.623Z,36.83
2019-01-09T07:05:01.426Z,62.57
2019-01-09T07:07:44.390Z,54.13
2019-01-09T07:10:27.151Z,40.47
2019-01-09T07:13:09.794Z,28.13
2019-01-09T07:15:53.083Z,23.17
2019-01-09T07:18:35.955Z,18.70
2019-01-09T07:21:18.957Z,18.03
2019-01-09T07:24:02.479Z,20.40
2019-01-09T07:26:45.575Z,18.43
2019-01-09T07:29:28.971Z,22.30
2019-01-09T07:32:11.740Z,22.70
2019-01-09T07:34:54.525Z,25.00
2019-01-09T07:37:44.897Z,23.37
2019-01-09T07:40:12.867Z,22.27
2019-01-09T07:49:18.891Z,24.43
2019-01-09T07:55:03.154Z,31.95
2019-01-09T07:57:45.206Z,26.40
2019-01-09T08:00:28.000Z,24.73
2019-01-09T08:03:11.347Z,24.63
2019-01-09T08:05:54.229Z,24.47
2019-01-09T08:08:37.202Z,25.47
2019-01-09T08:11:20.152Z,24.37
2019-01-09T08:14:03.423Z,25.63
2019-01-09T08:16:46.281Z,23.63
2019-01-09T08:19:29.387Z,23.00
2019-01-09T08:22:12.823Z,19.17
2019-01-09T08:24:55.515Z,23.70
2019-01-09T08:27:39.172Z,28.55
2019-01-09T08:30:22.703Z,26.83
2019-01-09T08:33:06.379Z,24.37
2019-01-09T08:35:48.994Z,24.53
2019-01-09T08:41:25.098Z,25.83
2019-01-09T08:44:08.089Z,27.47
2019-01-09T08:46:51.692Z,29.03
2019-01-09T08:49:34.379Z,28.63
2019-01-09T08:52:17.035Z,24.93
2019-01-09T08:55:00.389Z,26.57
2019-01-09T08:57:43.251Z,22.83
2019-01-09T09:00:26.799Z,25.05
2019-01-09T09:03:09.899Z,21.93
2019-01-09T09:05:52.552Z,21.90
2019-01-09T09:08:37.107Z,24.23
2019-01-09T09:11:19.092Z,23.60
2019-01-09T09:14:02.144Z,18.13
2019-01-09T09:16:45.007Z,17.60
2019-01-09T09:19:27.767Z,17.60
2019-01-09T09:22:10.830Z,19.50
2019-01-09T09:24:53.735Z,21.63
2019-01-09T09:27:36.548Z,17.50
2019-01-09T09:30:19.638Z,19.07
2019-01-09T09:33:04.279Z,17.60
2019-01-09T09:35:47.079Z,19.00
2019-01-09T09:38:30.028Z,16.20
2019-01-09T09:41:12.755Z,19.80
2019-01-09T09:43:56.007Z,18.87
2019-01-09T09:46:39.636Z,16.43
2019-01-09T09:49:23.164Z,18.23
2019-01-09T09:52:06.255Z,16.87
2019-01-09T09:54:49.407Z,15.97
2019-01-09T09:57:32.203Z,21.67
2019-01-09T10:00:13.960Z,15.37
2019-01-09T10:02:56.678Z,18.57
2019-01-09T10:05:38.916Z,16.27
2019-01-09T10:08:29.236Z,18.67
2019-01-09T10:11:06.885Z,16.50
2019-01-09T10:13:49.850Z,17.13
2019-01-09T10:16:32.460Z,15.90
2019-01-09T10:19:15.359Z,19.85
2019-01-09T10:21:58.224Z,18.23
2019-01-09T10:24:41.039Z,22.00
2019-01-09T10:27:23.967Z,18.53
2019-01-09T10:30:06.600Z,19.30
2019-01-09T10:32:49.431Z,18.53
2019-01-09T10:35:32.394Z,21.83
2019-01-09T10:38:15.181Z,19.67
2019-01-09T10:40:58.134Z,20.10
2019-01-09T10:43:40.963Z,19.47
2019-01-09T10:46:23.876Z,23.47
2019-01-09T10:49:06.673Z,20.67
2019-01-09T10:51:48.939Z,22.87
2019-01-09T10:54:32.090Z,21.90
2019-01-09T10:57:15.199Z,74.60
2019-01-09T10:59:58.381Z,18.27
2019-01-09T11:02:41.227Z,22.50
2019-01-09T11:05:24.071Z,27.13
2019-01-09T11:08:06.895Z,26.93
2019-01-09T11:10:49.755Z,24.60
2019-01-09T11:13:34.021Z,30.70
2019-01-09T11:16:16.768Z,31.57
2019-01-09T11:19:00.099Z,30.67
2019-01-09T11:21:43.610Z,21.90
2019-01-09T11:24:27.030Z,17.63
2019-01-09T11:27:10.379Z,25.12
2019-01-09T11:29:53.668Z,23.47
2019-01-09T11:32:35.907Z,22.23
2019-01-09T11:35:18.870Z,23.93
2019-01-09T11:38:01.546Z,20.90
2019-01-09T11:40:44.817Z,24.80
2019-01-09T11:43:28.927Z,24.67
2019-01-09T11:46:11.607Z,29.37
2019-01-09T11:48:56.517Z,17.20
2019-01-09T11:51:39.123Z,33.23
2019-01-09T11:54:22.516Z,20.97
2019-01-09T11:57:11.043Z,24.87
2019-01-09T11:59:53.811Z,26.97
2019-01-09T12:02:36.961Z,22.97
2019-01-09T12:05:19.666Z,25.60
2019-01-09T12:08:04.974Z,18.40
2019-01-09T12:10:48.588Z,22.57
2019-01-09T12:13:30.978Z,19.37
2019-01-09T12:16:13.671Z,22.77
2019-01-09T12:18:55.976Z,27.67
2019-01-09T12:21:39.141Z,22.00
2019-01-09T12:24:23.372Z,32.30
2019-01-09T12:27:06.561Z,22.30
2019-01-09T12:29:49.496Z,20.57
2019-01-09T12:32:33.070Z,26.12
2019-01-09T12:35:15.915Z,20.67
2019-01-09T12:38:01.217Z,20.20
2019-01-09T12:40:44.724Z,21.17
2019-01-09T12:43:27.415Z,20.80
2019-01-09T12:46:10.601Z,34.40
2019-01-09T12:48:55.318Z,22.97
2019-01-09T12:51:37.973Z,19.70
2019-01-09T12:54:20.838Z,22.93
2019-01-09T12:57:03.959Z,19.33
2019-01-09T12:59:48.670Z,17.93
2019-01-09T13:02:32.421Z,19.57
2019-01-09T13:05:15.929Z,25.40
2019-01-09T13:07:59.089Z,24.53
2019-01-09T13:10:41.964Z,20.73
2019-01-09T13:22:32.873Z,29.13
2019-01-09T13:25:16.819Z,25.80
2019-01-09T13:39:50.620Z,29.40
2019-01-09T13:46:11.869Z,27.53
2019-01-09T13:51:31.195Z,24.23
2019-01-09T13:54:16.604Z,22.30
2019-01-09T13:59:45.936Z,25.00
2019-01-09T14:02:29.518Z,27.30
2019-01-09T14:14:09.522Z,23.13
2019-01-09T14:16:53.106Z,26.73
2019-01-09T14:19:37.716Z,20.47
2019-01-09T14:28:10.184Z,20.23
2019-01-09T14:31:00.045Z,32.17
2019-01-09T14:37:15.313Z,20.20
2019-01-09T14:43:19.928Z,21.90
2019-01-09T14:45:51.385Z,17.30
2019-01-09T14:51:43.274Z,18.70
2019-01-09T14:54:59.844Z,31.03
2019-01-09T14:57:46.615Z,22.80
2019-01-09T15:03:34.412Z,11.83
2019-01-09T15:06:17.594Z,17.93
2019-01-09T15:09:01.215Z,14.80
2019-01-09T15:11:45.568Z,14.00
2019-01-09T15:14:45.956Z,18.60
2019-01-09T15:17:18.154Z,15.23
2019-01-09T15:20:01.546Z,17.07
2019-01-09T15:22:49.547Z,10.00
2019-01-09T15:25:32.897Z,9.57
2019-01-09T15:28:15.763Z,10.23
2019-01-09T15:31:00.659Z,13.93
2019-01-09T15:33:43.252Z,19.00
2019-01-09T15:36:28.783Z,17.47
2019-01-09T15:39:12.728Z,9.53
2019-01-09T15:41:57.364Z,19.20
2019-01-09T15:44:40.074Z,9.67
2019-01-09T15:47:22.780Z,14.63
2019-01-09T15:50:05.910Z,6.57
2019-01-09T15:52:49.300Z,10.10
2019-01-09T15:55:31.911Z,20.27
2019-01-09T15:58:17.454Z,16.27
2019-01-09T16:01:04.526Z,21.03
2019-01-09T16:03:51.586Z,17.60
2019-01-09T16:06:36.508Z,29.20
2019-01-09T16:09:20.312Z,37.37
2019-01-09T16:12:06.592Z,28.97
2019-01-09T16:14:53.389Z,24.77
2019-01-09T16:17:37.323Z,14.97
2019-01-09T16:20:20.116Z,11.07
2019-01-09T16:23:04.827Z,14.57
2019-01-09T16:31:35.872Z,11.13
2019-01-09T16:40:13.487Z,14.20
2019-01-09T16:42:57.663Z,14.33
2019-01-09T16:45:40.687Z,12.23
2019-01-09T16:48:28.810Z,26.00
2019-01-09T16:54:08.270Z,12.73
2019-01-09T16:56:54.416Z,20.20
2019-01-09T16:59:38.352Z,16.95
2019-01-09T17:02:24.188Z,19.97
2019-01-09T17:13:55.553Z,11.67
2019-01-09T17:16:38.467Z,15.30
2019-01-09T17:19:24.951Z,10.00
2019-01-09T17:33:17.559Z,17.23
2019-01-09T17:52:52.995Z,13.43
2019-01-09T17:55:36.365Z,8.73
2019-01-09T18:01:16.003Z,8.70
2019-01-09T18:27:40.158Z,12.03
2019-01-09T19:27:58.278Z,9.20
2019-01-09T19:51:47.556Z,8.43
2019-01-09T20:18:02.966Z,7.28
2019-01-09T20:21:20.293Z,8.00
2019-01-09T20:23:59.413Z,11.03
2019-01-09T21:14:29.558Z,4.80
2019-01-09T21:31:36.119Z,7.50
2019-01-09T21:52:20.027Z,18.40
2019-01-09T21:58:55.589Z,10.13
2019-01-09T22:01:04.162Z,13.43
2019-01-09T22:03:51.105Z,19.27
2019-01-09T22:09:26.331Z,13.20
2019-01-09T22:32:27.048Z,18.50
2019-01-09T22:38:10.840Z,10.27
2019-01-09T22:40:54.348Z,12.30
2019-01-09T22:46:30.893Z,15.03
2019-01-09T22:52:12.146Z,11.10
2019-01-09T22:54:56.188Z,9.48
2019-01-09T22:58:09.297Z,9.63
2019-01-09T23:00:36.202Z,17.27
2019-01-09T23:12:55.176Z,12.87
2019-01-09T23:18:36.297Z,18.70
2019-01-09T23:24:41.923Z,16.00
2019-01-09T23:27:24.964Z,13.43
2019-01-09T23:30:08.436Z,18.67
2019-01-09T23:32:53.456Z,12.93
2019-01-09T23:38:25.662Z,14.60
2019-01-09T23:41:08.640Z,14.70
2019-01-09T23:43:55.106Z,14.80
2019-01-09T23:46:39.184Z,17.93
2019-01-09T23:49:22.511Z,21.30
2019-01-09T23:52:05.189Z,16.90
2019-01-09T23:54:47.780Z,14.87
2019-01-09T23:57:32.527Z,22.50
